createdAt,value
2022-07-27T00:00:50.228Z,16.25
2022-07-27T00:01:51.026Z,16.25
2022-07-27T00:02:51.629Z,16.25
2022-07-27T00:03:50.301Z,16.18
2022-07-27T00:04:50.299Z,16.17
2022-07-27T00:05:50.259Z,16.09
2022-07-27T00:06:50.282Z,16.25
2022-07-27T00:07:50.302Z,16.18
2022-07-27T00:08:50.319Z,16.12
2022-07-27T00:09:50.341Z,16.13
2022-07-27T00:10:50.360Z,16.10
2022-07-27T00:11:50.380Z,16.13
2022-07-27T00:12:50.399Z,16.02
2022-07-27T00:13:50.422Z,16.00
2022-07-27T00:14:50.439Z,15.96
2022-07-27T00:15:50.521Z,15.94
2022-07-27T00:16:50.536Z,16.13
2022-07-27T00:17:50.503Z,16.05
2022-07-27T00:18:50.526Z,16.05
2022-07-27T00:19:50.540Z,16.00
2022-07-27T00:20:50.571Z,16.09
2022-07-27T00:21:50.598Z,16.02
2022-07-27T00:22:50.599Z,15.94
2022-07-27T00:23:50.618Z,15.96
2022-07-27T00:24:50.639Z,15.94
2022-07-27T00:25:50.660Z,15.98
2022-07-27T00:26:50.682Z,15.87
2022-07-27T00:27:50.701Z,15.83
2022-07-27T00:28:50.723Z,15.81
2022-07-27T00:29:50.742Z,15.85
2022-07-27T00:30:50.762Z,15.73
2022-07-27T00:31:50.830Z,15.76
2022-07-27T00:32:50.800Z,15.78
2022-07-27T00:33:50.821Z,15.76
2022-07-27T00:34:50.840Z,15.69
2022-07-27T00:35:50.864Z,15.67
2022-07-27T00:36:50.898Z,15.70
2022-07-27T00:37:50.902Z,15.69
2022-07-27T00:38:50.920Z,15.62
2022-07-27T00:39:50.945Z,15.65
2022-07-27T00:40:50.960Z,15.52
2022-07-27T00:41:50.978Z,15.51
2022-07-27T00:42:50.999Z,15.59
2022-07-27T00:43:51.016Z,15.51
2022-07-27T00:44:51.038Z,15.48
2022-07-27T00:45:51.056Z,15.47
2022-07-27T00:46:51.100Z,15.45
2022-07-27T00:47:54.916Z,15.44
2022-07-27T00:48:51.184Z,15.32
2022-07-27T00:49:51.135Z,15.29
2022-07-27T00:50:51.157Z,15.33
2022-07-27T00:51:51.174Z,15.32
2022-07-27T00:52:51.197Z,15.29
2022-07-27T00:53:51.213Z,15.26
2022-07-27T00:54:51.237Z,15.17
2022-07-27T00:55:51.259Z,15.18
2022-07-27T00:56:51.271Z,15.15
2022-07-27T00:57:58.002Z,15.23
2022-07-27T00:58:51.312Z,15.10
2022-07-27T00:59:51.335Z,15.10
2022-07-27T01:00:51.355Z,15.17
2022-07-27T01:01:51.488Z,15.11
2022-07-27T01:02:51.525Z,15.12
2022-07-27T01:03:51.422Z,15.12
2022-07-27T01:04:56.831Z,15.05
2022-07-27T01:05:51.450Z,15.05
2022-07-27T01:06:51.472Z,15.02
2022-07-27T01:07:51.489Z,15.05
2022-07-27T01:08:51.507Z,15.05
2022-07-27T01:09:51.525Z,14.94
2022-07-27T01:10:51.546Z,14.92
2022-07-27T01:11:51.567Z,14.93
2022-07-27T01:12:51.587Z,14.94
2022-07-27T01:13:51.604Z,14.89
2022-07-27T01:14:51.628Z,14.87
2022-07-27T01:15:51.701Z,14.79
2022-07-27T01:16:51.660Z,14.82
2022-07-27T01:17:51.682Z,14.74
2022-07-27T01:18:51.700Z,14.74
2022-07-27T01:19:51.718Z,14.73
2022-07-27T01:20:51.738Z,14.66
2022-07-27T01:21:51.759Z,14.63
2022-07-27T01:22:51.780Z,14.59
2022-07-27T01:23:51.796Z,14.56
2022-07-27T01:24:51.816Z,14.53
2022-07-27T01:25:51.870Z,14.61
2022-07-27T01:26:51.856Z,14.55
2022-07-27T01:27:51.881Z,14.48
2022-07-27T01:28:51.897Z,14.48
2022-07-27T01:29:51.910Z,14.49
2022-07-27T01:30:51.986Z,14.43
2022-07-27T01:31:51.949Z,14.34
2022-07-27T01:32:51.968Z,14.36
2022-07-27T01:33:51.986Z,14.36
2022-07-27T01:34:52.007Z,14.26
2022-07-27T01:35:52.024Z,14.20
2022-07-27T01:36:52.045Z,14.20
2022-07-27T01:37:52.065Z,14.18
2022-07-27T01:38:52.079Z,14.16
2022-07-27T01:39:52.100Z,14.16
2022-07-27T01:40:52.119Z,14.08
2022-07-27T01:41:52.138Z,14.07
2022-07-27T01:42:52.155Z,14.04
2022-07-27T01:43:52.176Z,14.00
2022-07-27T01:44:52.193Z,13.94
2022-07-27T01:45:52.221Z,13.91
2022-07-27T01:46:52.349Z,13.97
2022-07-27T01:47:52.247Z,13.86
2022-07-27T01:48:52.355Z,13.95
2022-07-27T01:49:52.290Z,13.89
2022-07-27T01:50:52.307Z,13.82
2022-07-27T01:51:52.325Z,13.94
2022-07-27T01:52:52.346Z,13.80
2022-07-27T01:53:52.366Z,13.76
2022-07-27T01:54:52.382Z,13.68
2022-07-27T01:55:52.401Z,13.67
2022-07-27T01:56:52.426Z,13.65
2022-07-27T01:57:52.437Z,13.70
2022-07-27T01:58:52.455Z,13.62
2022-07-27T01:59:52.474Z,13.67
2022-07-27T02:00:52.494Z,13.68
2022-07-27T02:01:52.576Z,13.58
2022-07-27T02:02:52.530Z,13.58
2022-07-27T02:03:52.550Z,13.60
2022-07-27T02:04:52.611Z,13.55
2022-07-27T02:05:52.584Z,13.49
2022-07-27T02:06:52.604Z,13.45
2022-07-27T02:07:52.622Z,13.49
2022-07-27T02:08:52.640Z,13.40
2022-07-27T02:09:52.660Z,13.30
2022-07-27T02:10:52.680Z,13.30
2022-07-27T02:11:52.697Z,13.20
2022-07-27T02:12:52.713Z,13.26
2022-07-27T02:13:52.733Z,13.24
2022-07-27T02:14:52.751Z,13.26
2022-07-27T02:15:54.595Z,13.23
2022-07-27T02:16:52.795Z,13.20
2022-07-27T02:17:52.806Z,13.16
2022-07-27T02:18:52.826Z,13.13
2022-07-27T02:19:52.851Z,13.16
2022-07-27T02:20:52.869Z,13.17
2022-07-27T02:21:52.883Z,12.99
2022-07-27T02:22:52.902Z,12.99
2022-07-27T02:23:52.914Z,13.02
2022-07-27T02:24:52.933Z,12.99
2022-07-27T02:25:52.951Z,12.98
2022-07-27T02:26:52.969Z,12.98
2022-07-27T02:27:52.987Z,12.98
2022-07-27T02:28:53.005Z,12.94
2022-07-27T02:29:53.029Z,12.91
2022-07-27T02:30:53.043Z,12.86
2022-07-27T02:31:53.061Z,12.83
2022-07-27T02:32:53.165Z,12.78
2022-07-27T02:33:53.094Z,12.80
2022-07-27T02:34:53.114Z,12.81
2022-07-27T02:35:53.131Z,12.83
2022-07-27T02:36:53.149Z,12.78
2022-07-27T02:37:53.168Z,12.81
2022-07-27T02:38:53.185Z,12.84
2022-07-27T02:39:53.204Z,12.78
2022-07-27T02:40:53.228Z,12.75
2022-07-27T02:41:53.239Z,12.73
2022-07-27T02:42:53.261Z,12.69
2022-07-27T02:43:53.274Z,12.69
2022-07-27T02:44:53.295Z,12.65
2022-07-27T02:45:53.350Z,12.66
2022-07-27T02:46:53.330Z,12.66
2022-07-27T02:47:53.345Z,12.65
2022-07-27T02:48:53.415Z,12.66
2022-07-27T02:49:53.382Z,12.68
2022-07-27T02:50:53.412Z,12.61
2022-07-27T02:51:53.425Z,12.57
2022-07-27T02:52:53.436Z,12.55
2022-07-27T02:53:53.454Z,12.62
2022-07-27T02:54:53.473Z,12.55
2022-07-27T02:55:53.489Z,12.54
2022-07-27T02:56:53.508Z,12.53
2022-07-27T02:57:53.524Z,12.53
2022-07-27T02:58:53.544Z,12.53
2022-07-27T02:59:53.561Z,12.37
2022-07-27T03:00:58.091Z,12.43
2022-07-27T03:01:53.642Z,12.45
2022-07-27T03:02:53.615Z,12.43
2022-07-27T03:03:53.728Z,12.36
2022-07-27T03:04:53.650Z,12.37
2022-07-27T03:05:53.675Z,12.35
2022-07-27T03:06:53.684Z,12.32
2022-07-27T03:07:53.704Z,12.32
2022-07-27T03:08:53.720Z,12.29
2022-07-27T03:09:53.737Z,12.30
2022-07-27T03:10:53.775Z,12.28
2022-07-27T03:11:53.771Z,12.25
2022-07-27T03:12:53.789Z,12.30
2022-07-27T03:13:53.812Z,12.28
2022-07-27T03:14:53.830Z,12.28
2022-07-27T03:15:53.976Z,12.32
2022-07-27T03:16:53.875Z,12.18
2022-07-27T03:17:53.877Z,12.18
2022-07-27T03:18:53.897Z,12.29
2022-07-27T03:19:53.915Z,12.28
2022-07-27T03:20:53.931Z,12.28
2022-07-27T03:21:53.949Z,12.25
2022-07-27T03:22:53.967Z,12.20
2022-07-27T03:23:53.984Z,12.30
2022-07-27T03:24:53.998Z,12.26
2022-07-27T03:25:54.019Z,12.23
2022-07-27T03:26:54.036Z,12.28
2022-07-27T03:27:54.062Z,12.28
2022-07-27T03:28:54.075Z,12.25
2022-07-27T03:29:54.092Z,12.20
2022-07-27T03:30:54.156Z,12.21
2022-07-27T03:31:54.123Z,12.25
2022-07-27T03:32:54.144Z,12.26
2022-07-27T03:33:54.160Z,12.20
2022-07-27T03:34:54.183Z,12.29
2022-07-27T03:35:54.194Z,12.29
2022-07-27T03:36:54.212Z,12.28
2022-07-27T03:37:54.237Z,12.30
2022-07-27T03:38:54.249Z,12.26
2022-07-27T03:39:54.265Z,12.35
2022-07-27T03:40:54.284Z,12.39
2022-07-27T03:41:54.299Z,12.36
2022-07-27T03:42:54.319Z,12.35
2022-07-27T03:43:54.334Z,12.40
2022-07-27T03:44:54.355Z,12.40
2022-07-27T03:45:54.443Z,12.45
2022-07-27T03:46:54.389Z,12.40
2022-07-27T03:47:54.404Z,12.45
2022-07-27T03:48:54.441Z,12.47
2022-07-27T03:49:54.444Z,12.51
2022-07-27T03:50:54.462Z,12.53
2022-07-27T03:51:54.478Z,12.51
2022-07-27T03:52:54.496Z,12.51
2022-07-27T03:53:54.515Z,12.54
2022-07-27T03:54:54.528Z,12.54
2022-07-27T03:55:54.549Z,12.53
2022-07-27T03:56:54.564Z,12.61
2022-07-27T03:57:54.582Z,12.65
2022-07-27T03:58:54.603Z,12.55
2022-07-27T03:59:54.619Z,12.61
2022-07-27T04:00:54.688Z,12.68
2022-07-27T04:01:54.655Z,12.61
2022-07-27T04:02:54.729Z,12.61
2022-07-27T04:03:54.692Z,12.62
2022-07-27T04:04:54.714Z,12.63
2022-07-27T04:05:54.832Z,12.65
2022-07-27T04:06:54.746Z,12.63
2022-07-27T04:07:55.126Z,12.68
2022-07-27T04:08:59.682Z,12.65
2022-07-27T04:09:54.798Z,12.61
2022-07-27T04:10:54.817Z,12.62
2022-07-27T04:11:55.678Z,12.63
2022-07-27T04:12:54.850Z,12.66
2022-07-27T04:13:54.869Z,12.68
2022-07-27T04:14:54.889Z,12.70
2022-07-27T04:15:54.906Z,12.69
2022-07-27T04:16:54.967Z,12.72
2022-07-27T04:17:57.551Z,12.68
2022-07-27T04:18:54.955Z,12.69
2022-07-27T04:19:54.975Z,12.75
2022-07-27T04:20:54.995Z,12.66
2022-07-27T04:21:55.010Z,12.80
2022-07-27T04:22:55.029Z,12.68
2022-07-27T04:23:55.048Z,12.68
2022-07-27T04:24:55.065Z,12.70
2022-07-27T04:25:55.084Z,12.70
2022-07-27T04:26:55.106Z,12.69
2022-07-27T04:27:55.121Z,12.72
2022-07-27T04:28:55.165Z,12.66
2022-07-27T04:29:55.155Z,12.58
2022-07-27T04:30:55.213Z,12.68
2022-07-27T04:31:55.191Z,12.68
2022-07-27T04:32:55.208Z,12.69
2022-07-27T04:33:55.227Z,12.66
2022-07-27T04:34:55.245Z,12.68
2022-07-27T04:35:55.263Z,12.68
2022-07-27T04:36:55.280Z,12.62
2022-07-27T04:37:58.875Z,12.68
2022-07-27T04:38:55.314Z,12.68
2022-07-27T04:39:55.330Z,12.68
2022-07-27T04:40:58.322Z,12.70
2022-07-27T04:41:55.370Z,12.70
2022-07-27T04:42:55.386Z,12.63
2022-07-27T04:43:55.406Z,12.66
2022-07-27T04:44:55.428Z,12.63
2022-07-27T04:45:55.486Z,12.62
2022-07-27T04:46:55.461Z,12.72
2022-07-27T04:47:55.475Z,12.66
2022-07-27T04:48:55.531Z,12.70
2022-07-27T04:49:55.514Z,12.66
2022-07-27T04:50:55.531Z,12.78
2022-07-27T04:51:55.549Z,12.76
2022-07-27T04:52:55.566Z,12.75
2022-07-27T04:53:58.489Z,12.83
2022-07-27T04:54:55.607Z,12.72
2022-07-27T04:55:55.620Z,12.80
2022-07-27T04:56:55.640Z,12.87
2022-07-27T04:57:55.657Z,12.87
2022-07-27T04:58:55.677Z,12.93
2022-07-27T04:59:55.692Z,13.03
2022-07-27T05:00:55.760Z,13.05
2022-07-27T05:01:55.825Z,13.06
2022-07-27T05:02:55.749Z,13.12
2022-07-27T05:03:55.805Z,13.09
2022-07-27T05:04:55.787Z,13.24
2022-07-27T05:05:55.804Z,13.26
2022-07-27T05:06:55.820Z,13.27
2022-07-27T05:07:55.842Z,13.33
2022-07-27T05:08:55.858Z,13.39
2022-07-27T05:09:55.875Z,13.45
2022-07-27T05:10:56.014Z,13.52
2022-07-27T05:11:55.914Z,13.58
2022-07-27T05:12:55.934Z,13.60
2022-07-27T05:13:55.951Z,13.50
2022-07-27T05:14:55.970Z,13.75
2022-07-27T05:15:56.160Z,13.67
2022-07-27T05:16:56.073Z,13.65
2022-07-27T05:17:56.027Z,13.80
2022-07-27T05:18:56.046Z,13.78
2022-07-27T05:19:56.064Z,13.82
2022-07-27T05:20:56.089Z,13.82
2022-07-27T05:21:56.103Z,13.79
2022-07-27T05:22:56.121Z,13.91
2022-07-27T05:23:56.139Z,13.89
2022-07-27T05:24:56.161Z,13.83
2022-07-27T05:25:56.183Z,13.93
2022-07-27T05:26:56.198Z,13.89
2022-07-27T05:27:56.215Z,13.86
2022-07-27T05:28:56.236Z,13.95
2022-07-27T05:29:56.255Z,13.93
2022-07-27T05:30:56.276Z,14.03
2022-07-27T05:31:56.351Z,14.01
2022-07-27T05:32:56.311Z,14.05
2022-07-27T05:33:58.448Z,14.07
2022-07-27T05:34:56.352Z,14.12
2022-07-27T05:35:56.369Z,14.05
2022-07-27T05:36:56.389Z,14.11
2022-07-27T05:37:56.456Z,14.19
2022-07-27T05:38:56.431Z,14.23
2022-07-27T05:39:56.447Z,14.20
2022-07-27T05:40:56.465Z,14.20
2022-07-27T05:41:56.487Z,14.30
2022-07-27T05:42:56.503Z,14.33
2022-07-27T05:43:56.521Z,14.36
2022-07-27T05:44:56.546Z,14.36
2022-07-27T05:45:56.626Z,14.43
2022-07-27T05:46:56.581Z,14.45
2022-07-27T05:47:56.599Z,14.43
2022-07-27T05:48:56.764Z,14.43
2022-07-27T05:49:56.639Z,14.45
2022-07-27T05:50:56.670Z,14.45
2022-07-27T05:51:56.677Z,14.49
2022-07-27T05:52:56.699Z,14.36
2022-07-27T05:53:56.716Z,14.48
2022-07-27T05:54:56.735Z,14.49
2022-07-27T05:55:58.048Z,14.59
2022-07-27T05:56:56.774Z,14.56
2022-07-27T05:57:56.803Z,14.55
2022-07-27T05:58:56.817Z,14.55
2022-07-27T05:59:56.832Z,14.56
2022-07-27T06:00:56.951Z,14.55
2022-07-27T06:01:56.872Z,14.51
2022-07-27T06:02:56.903Z,14.66
2022-07-27T06:03:56.947Z,14.63
2022-07-27T06:04:56.932Z,14.63
2022-07-27T06:05:56.950Z,14.70
2022-07-27T06:06:56.968Z,14.63
2022-07-27T06:07:56.996Z,14.71
2022-07-27T06:08:57.006Z,14.58
2022-07-27T06:09:57.029Z,14.73
2022-07-27T06:10:57.048Z,14.78
2022-07-27T06:11:57.065Z,14.81
2022-07-27T06:12:57.085Z,14.78
2022-07-27T06:13:57.106Z,14.79
2022-07-27T06:14:57.125Z,14.77
2022-07-27T06:15:57.142Z,14.81
2022-07-27T06:16:57.234Z,14.90
2022-07-27T06:17:57.183Z,14.94
2022-07-27T06:18:57.199Z,14.93
2022-07-27T06:19:57.219Z,15.02
2022-07-27T06:20:57.244Z,14.97
2022-07-27T06:21:57.260Z,15.02
2022-07-27T06:22:57.283Z,15.00
2022-07-27T06:23:57.299Z,15.04
2022-07-27T06:24:57.320Z,15.11
2022-07-27T06:25:57.364Z,15.05
2022-07-27T06:26:57.361Z,15.17
2022-07-27T06:27:57.380Z,15.19
2022-07-27T06:28:57.411Z,15.19
2022-07-27T06:29:57.417Z,15.22
2022-07-27T06:30:57.437Z,15.29
2022-07-27T06:31:57.479Z,15.27
2022-07-27T06:32:57.478Z,15.36
2022-07-27T06:33:57.500Z,15.36
2022-07-27T06:34:57.519Z,15.51
2022-07-27T06:35:57.537Z,15.48
2022-07-27T06:36:57.559Z,15.57
2022-07-27T06:37:57.576Z,15.66
2022-07-27T06:38:57.620Z,15.80
2022-07-27T06:39:57.625Z,15.85
2022-07-27T06:40:57.651Z,15.91
2022-07-27T06:41:58.407Z,16.03
2022-07-27T06:42:57.682Z,16.09
2022-07-27T06:43:57.700Z,16.08
2022-07-27T06:44:57.721Z,16.16
2022-07-27T06:45:57.742Z,16.29
2022-07-27T06:46:57.838Z,16.31
2022-07-27T06:47:57.792Z,16.40
2022-07-27T06:48:57.835Z,16.44
2022-07-27T06:49:57.827Z,16.54
2022-07-27T06:50:57.848Z,16.51
2022-07-27T06:51:57.870Z,16.57
2022-07-27T06:52:57.889Z,16.62
2022-07-27T06:53:57.912Z,16.74
2022-07-27T06:54:57.933Z,16.86
2022-07-27T06:55:57.952Z,16.97
2022-07-27T06:56:57.976Z,17.02
2022-07-27T06:57:57.996Z,17.10
2022-07-27T06:58:58.018Z,17.22
2022-07-27T06:59:58.040Z,17.31
2022-07-27T07:00:58.105Z,17.37
2022-07-27T07:01:58.084Z,17.38
2022-07-27T07:02:58.105Z,17.59
2022-07-27T07:03:58.202Z,17.59
2022-07-27T07:04:58.153Z,17.66
2022-07-27T07:05:58.171Z,17.73
2022-07-27T07:06:58.193Z,17.87
2022-07-27T07:07:58.217Z,17.91
2022-07-27T07:08:58.236Z,17.95
2022-07-27T07:09:58.262Z,18.15
2022-07-27T07:10:58.289Z,18.18
2022-07-27T07:11:58.308Z,18.31
2022-07-27T07:12:58.325Z,18.37
2022-07-27T07:13:58.351Z,18.46
2022-07-27T07:14:58.371Z,18.53
2022-07-27T07:15:58.456Z,18.64
2022-07-27T07:16:58.418Z,18.67
2022-07-27T07:17:58.441Z,18.66
2022-07-27T07:18:58.465Z,18.81
2022-07-27T07:19:58.488Z,18.85
2022-07-27T07:20:58.508Z,18.85
2022-07-27T07:21:58.531Z,18.88
2022-07-27T07:22:58.564Z,18.92
2022-07-27T07:23:58.593Z,19.11
2022-07-27T07:25:02.686Z,19.16
2022-07-27T07:25:58.725Z,19.19
2022-07-27T07:26:58.649Z,19.37
2022-07-27T07:27:58.673Z,19.45
2022-07-27T07:28:58.696Z,19.49
2022-07-27T07:29:58.719Z,19.66
2022-07-27T07:30:58.850Z,19.81
2022-07-27T07:31:58.831Z,19.87
2022-07-27T07:32:58.789Z,19.99
2022-07-27T07:33:58.815Z,20.12
2022-07-27T07:34:58.837Z,20.12
2022-07-27T07:36:13.511Z,20.30
2022-07-27T07:36:58.886Z,20.40
2022-07-27T07:37:58.915Z,20.52
2022-07-27T07:38:58.936Z,20.64
2022-07-27T07:40:08.180Z,20.67
2022-07-27T07:40:58.986Z,20.80
2022-07-27T07:41:59.013Z,20.78
2022-07-27T07:42:59.038Z,20.77
2022-07-27T07:43:59.059Z,20.89
2022-07-27T07:44:59.087Z,20.93
2022-07-27T07:45:59.110Z,21.08
2022-07-27T07:46:59.254Z,21.03
2022-07-27T07:47:59.159Z,20.93
2022-07-27T07:48:59.272Z,21.03
2022-07-27T07:49:59.212Z,21.03
2022-07-27T07:50:59.235Z,21.05
2022-07-27T07:51:59.258Z,21.08
2022-07-27T07:52:59.295Z,21.15
2022-07-27T07:53:59.313Z,21.22
2022-07-27T07:54:59.339Z,21.28
2022-07-27T07:55:59.358Z,21.17
2022-07-27T07:56:59.383Z,21.22
2022-07-27T07:57:59.410Z,21.26
2022-07-27T07:58:59.433Z,21.22
2022-07-27T07:59:59.457Z,21.29
2022-07-27T08:00:59.483Z,21.25
2022-07-27T08:01:59.585Z,21.23
2022-07-27T08:02:59.615Z,21.26
2022-07-27T08:03:59.560Z,21.28
2022-07-27T08:04:59.586Z,21.20
2022-07-27T08:05:59.620Z,21.28
2022-07-27T08:06:59.637Z,21.23
2022-07-27T08:07:59.665Z,21.22
2022-07-27T08:08:59.683Z,21.14
2022-07-27T08:09:59.709Z,21.13
2022-07-27T08:10:59.733Z,21.11
2022-07-27T08:11:59.756Z,21.15
2022-07-27T08:12:59.780Z,21.05
2022-07-27T08:13:59.807Z,21.00
2022-07-27T08:14:59.831Z,21.03
2022-07-27T08:15:59.933Z,21.05
2022-07-27T08:16:59.880Z,21.04
2022-07-27T08:17:59.907Z,21.05
2022-07-27T08:18:59.929Z,21.03
2022-07-27T08:19:59.952Z,20.98
2022-07-27T08:20:59.977Z,20.89
2022-07-27T08:22:00.002Z,20.90
2022-07-27T08:23:00.025Z,20.78
2022-07-27T08:24:00.050Z,20.66
2022-07-27T08:25:00.074Z,20.63
2022-07-27T08:26:04.172Z,20.66
2022-07-27T08:27:00.123Z,20.55
2022-07-27T08:28:00.155Z,20.55
2022-07-27T08:29:09.077Z,20.49
2022-07-27T08:30:00.195Z,20.39
2022-07-27T08:31:00.283Z,20.36
2022-07-27T08:32:00.277Z,20.19
2022-07-27T08:33:00.266Z,20.21
2022-07-27T08:34:00.287Z,20.21
2022-07-27T08:35:00.313Z,20.27
2022-07-27T08:36:00.335Z,20.33
2022-07-27T08:37:00.359Z,20.30
2022-07-27T08:38:00.401Z,20.37
2022-07-27T08:39:00.407Z,20.33
2022-07-27T08:41:00.454Z,20.19
2022-07-27T08:42:00.479Z,20.24
2022-07-27T08:43:00.505Z,20.26
2022-07-27T08:44:00.527Z,20.21
2022-07-27T08:45:00.552Z,20.24
2022-07-27T08:46:00.659Z,20.32
2022-07-27T08:47:00.646Z,20.36
2022-07-27T08:48:00.621Z,20.44
2022-07-27T08:49:00.724Z,20.52
2022-07-27T08:50:00.727Z,20.55
2022-07-27T08:51:00.690Z,20.55
2022-07-27T08:52:00.717Z,20.59
2022-07-27T08:53:00.738Z,20.63
2022-07-27T08:54:00.768Z,20.59
2022-07-27T08:55:00.789Z,20.58
2022-07-27T08:56:00.810Z,20.44
2022-07-27T08:57:00.833Z,20.55
2022-07-27T08:58:03.131Z,20.40
2022-07-27T08:59:00.885Z,20.46
2022-07-27T09:00:00.904Z,20.34
2022-07-27T09:01:00.931Z,20.48
2022-07-27T09:02:03.285Z,20.32
2022-07-27T09:03:01.147Z,20.27
2022-07-27T09:04:01.002Z,20.27
2022-07-27T09:05:01.025Z,20.21
2022-07-27T09:06:01.049Z,20.21
2022-07-27T09:07:01.070Z,20.30
2022-07-27T09:08:01.094Z,20.34
2022-07-27T09:09:01.118Z,20.39
2022-07-27T09:10:01.142Z,20.58
2022-07-27T09:11:01.165Z,20.53
2022-07-27T09:12:01.190Z,20.58
2022-07-27T09:13:01.215Z,20.70
2022-07-27T09:14:01.237Z,20.70
2022-07-27T09:15:01.261Z,20.60
2022-07-27T09:16:18.686Z,20.59
2022-07-27T09:17:46.717Z,20.78
2022-07-27T09:18:01.379Z,20.77
2022-07-27T09:19:01.358Z,20.78
2022-07-27T09:20:01.379Z,20.93
2022-07-27T09:21:01.407Z,21.07
2022-07-27T09:22:01.430Z,21.04
2022-07-27T09:23:01.460Z,21.13
2022-07-27T09:24:01.490Z,21.20
2022-07-27T09:25:01.502Z,21.29
2022-07-27T09:26:04.438Z,21.37
2022-07-27T09:27:01.557Z,21.50
2022-07-27T09:28:01.577Z,21.56
2022-07-27T09:29:01.624Z,21.66
2022-07-27T09:30:01.628Z,21.83
2022-07-27T09:31:01.704Z,21.96
2022-07-27T09:32:01.678Z,22.07
2022-07-27T09:33:01.706Z,22.08
2022-07-27T09:34:01.733Z,22.08
2022-07-27T09:35:01.756Z,22.15
2022-07-27T09:36:01.782Z,22.19
2022-07-27T09:37:01.809Z,22.03
2022-07-27T09:38:01.838Z,22.07
2022-07-27T09:39:02.828Z,21.92
2022-07-27T09:40:01.889Z,21.83
2022-07-27T09:41:01.917Z,21.72
2022-07-27T09:42:02.128Z,21.60
2022-07-27T09:43:07.376Z,21.50
2022-07-27T09:45:02.013Z,21.35
2022-07-27T09:46:02.068Z,21.32
2022-07-27T09:47:02.144Z,21.30
2022-07-27T09:48:02.087Z,21.30
2022-07-27T09:49:02.144Z,21.20
2022-07-27T09:50:02.135Z,21.25
2022-07-27T09:51:03.639Z,21.25
2022-07-27T09:52:02.784Z,21.26
2022-07-27T09:53:14.621Z,21.23
2022-07-27T09:54:02.232Z,21.23
2022-07-27T09:55:02.255Z,21.26
2022-07-27T09:56:02.280Z,21.22
2022-07-27T09:57:02.303Z,21.29
2022-07-27T09:58:02.335Z,21.26
2022-07-27T09:59:02.353Z,21.29
2022-07-27T10:00:02.380Z,21.35
2022-07-27T10:01:02.404Z,21.38
2022-07-27T10:02:02.516Z,21.30
2022-07-27T10:03:02.453Z,21.32
2022-07-27T10:04:02.513Z,21.40
2022-07-27T10:05:02.582Z,21.51
2022-07-27T10:06:02.526Z,21.51
2022-07-27T10:07:04.715Z,21.63
2022-07-27T10:08:02.573Z,21.75
2022-07-27T10:09:02.611Z,21.84
2022-07-27T10:10:02.622Z,22.03
2022-07-27T10:11:04.096Z,22.04
2022-07-27T10:12:02.671Z,21.94
2022-07-27T10:13:02.698Z,22.07
2022-07-27T10:14:02.742Z,22.01
2022-07-27T10:15:02.752Z,22.04
2022-07-27T10:16:02.881Z,22.16
2022-07-27T10:17:02.801Z,22.18
2022-07-27T10:18:06.873Z,22.12
2022-07-27T10:19:02.849Z,22.06
2022-07-27T10:20:02.874Z,21.97
2022-07-27T10:21:02.897Z,21.96
2022-07-27T10:22:02.923Z,22.00
2022-07-27T10:23:02.949Z,22.01
2022-07-27T10:24:02.973Z,22.01
2022-07-27T10:25:02.997Z,22.01
2022-07-27T10:26:03.023Z,22.06
2022-07-27T10:27:03.050Z,22.22
2022-07-27T10:28:03.074Z,22.21
2022-07-27T10:29:03.099Z,22.26
2022-07-27T10:30:03.125Z,22.34
2022-07-27T10:31:03.193Z,22.46
2022-07-27T10:32:03.176Z,22.67
2022-07-27T10:33:03.202Z,22.89
2022-07-27T10:34:03.229Z,23.04
2022-07-27T10:35:03.256Z,23.21
2022-07-27T10:36:03.282Z,23.21
2022-07-27T10:37:03.309Z,23.36
2022-07-27T10:38:03.336Z,23.47
2022-07-27T10:39:03.364Z,23.69
2022-07-27T10:40:03.390Z,23.69
2022-07-27T10:41:03.418Z,23.81
2022-07-27T10:42:03.445Z,23.92
2022-07-27T10:43:03.476Z,24.18
2022-07-27T10:44:03.503Z,24.21
2022-07-27T10:45:03.527Z,24.41
2022-07-27T10:46:03.686Z,24.48
2022-07-27T10:47:03.591Z,24.61
2022-07-27T10:48:03.610Z,24.63
2022-07-27T10:49:03.692Z,24.62
2022-07-27T10:50:03.670Z,24.78
2022-07-27T10:51:03.698Z,24.88
2022-07-27T10:52:03.727Z,24.97
2022-07-27T10:53:03.751Z,25.06
2022-07-27T10:54:12.190Z,25.19
2022-07-27T10:55:03.810Z,25.16
2022-07-27T10:56:03.840Z,25.15
2022-07-27T10:57:03.865Z,25.18
2022-07-27T10:58:03.895Z,25.21
2022-07-27T10:59:03.923Z,25.19
2022-07-27T11:00:08.512Z,25.30
2022-07-27T11:01:04.036Z,25.41
2022-07-27T11:02:04.007Z,25.40
2022-07-27T11:03:04.035Z,25.62
2022-07-27T11:04:04.087Z,25.86
2022-07-27T11:05:04.096Z,25.93
2022-07-27T11:06:30.781Z,26.24
2022-07-27T11:09:52.556Z,26.68
2022-07-27T11:10:05.160Z,26.88
2022-07-27T11:11:04.279Z,27.11
2022-07-27T11:12:04.301Z,27.20
2022-07-27T11:13:05.650Z,27.20
2022-07-27T11:14:04.364Z,27.22
2022-07-27T11:15:04.399Z,27.30
2022-07-27T11:17:32.330Z,27.23
2022-07-27T11:18:05.307Z,27.16
2022-07-27T11:19:04.615Z,26.97
2022-07-27T11:20:04.552Z,26.79
2022-07-27T11:21:04.897Z,26.78
2022-07-27T11:22:04.887Z,26.74
2022-07-27T11:24:04.665Z,26.85
2022-07-27T11:25:04.696Z,26.70
2022-07-27T11:26:04.725Z,26.55
2022-07-27T11:27:17.139Z,26.46
2022-07-27T11:28:04.783Z,26.31
2022-07-27T11:29:04.816Z,26.24
2022-07-27T11:30:04.843Z,26.08
2022-07-27T11:31:04.907Z,26.08
2022-07-27T11:32:04.988Z,26.06
2022-07-27T11:33:04.980Z,25.91
2022-07-27T11:34:04.959Z,25.98
2022-07-27T11:35:09.038Z,25.99
2022-07-27T11:36:05.012Z,26.08
2022-07-27T11:37:05.042Z,26.23
2022-07-27T11:38:05.236Z,26.39
2022-07-27T11:39:05.101Z,26.39
2022-07-27T11:40:20.287Z,26.41
2022-07-27T11:41:15.272Z,26.42
2022-07-27T11:42:08.472Z,26.36
2022-07-27T11:43:05.220Z,26.31
2022-07-27T11:44:05.246Z,26.29
2022-07-27T11:45:05.281Z,26.23
2022-07-27T11:46:05.327Z,26.10
2022-07-27T11:47:05.332Z,26.06
2022-07-27T11:48:05.370Z,25.95
2022-07-27T11:49:08.008Z,25.95
2022-07-27T11:50:05.591Z,25.93
2022-07-27T11:51:05.445Z,25.95
2022-07-27T11:52:05.470Z,25.95
2022-07-27T11:53:05.500Z,25.99
2022-07-27T11:54:05.532Z,25.96
2022-07-27T11:55:05.558Z,25.95
2022-07-27T11:56:05.584Z,25.96
2022-07-27T11:57:05.628Z,25.88
2022-07-27T11:58:05.641Z,25.89
2022-07-27T11:59:05.668Z,25.78
2022-07-27T12:00:05.774Z,25.66
2022-07-27T12:01:05.723Z,25.66
2022-07-27T12:02:05.807Z,25.59
2022-07-27T12:03:05.784Z,25.43
2022-07-27T12:04:05.806Z,25.43
2022-07-27T12:05:05.849Z,25.30
2022-07-27T12:06:05.862Z,25.30
2022-07-27T12:07:05.900Z,25.19
2022-07-27T12:08:05.939Z,25.16
2022-07-27T12:09:05.946Z,25.14
2022-07-27T12:10:06.019Z,25.03
2022-07-27T12:11:06.001Z,25.00
2022-07-27T12:12:06.026Z,25.09
2022-07-27T12:13:06.053Z,25.22
2022-07-27T12:14:06.082Z,25.33
2022-07-27T12:15:22.311Z,25.40
2022-07-27T12:16:06.140Z,25.40
2022-07-27T12:17:06.217Z,25.61
2022-07-27T12:18:06.196Z,25.51
2022-07-27T12:19:06.219Z,25.52
2022-07-27T12:20:06.336Z,25.59
2022-07-27T12:21:06.273Z,25.59
2022-07-27T12:22:06.303Z,25.52
2022-07-27T12:23:06.334Z,25.55
2022-07-27T12:24:06.361Z,25.52
2022-07-27T12:25:15.892Z,25.54
2022-07-27T12:26:06.414Z,25.51
2022-07-27T12:27:06.941Z,25.55
2022-07-27T12:28:06.469Z,25.54
2022-07-27T12:29:06.493Z,25.49
2022-07-27T12:30:06.532Z,25.51
2022-07-27T12:31:06.623Z,25.56
2022-07-27T12:32:06.580Z,25.52
2022-07-27T12:33:06.606Z,25.29
2022-07-27T12:34:06.841Z,25.30
2022-07-27T12:35:06.664Z,25.21
2022-07-27T12:36:06.687Z,25.18
2022-07-27T12:37:06.717Z,25.18
2022-07-27T12:38:06.745Z,25.21
2022-07-27T12:39:06.770Z,25.31
2022-07-27T12:40:06.797Z,25.31
2022-07-27T12:41:06.825Z,25.31
2022-07-27T12:42:06.855Z,25.29
2022-07-27T12:43:06.881Z,25.29
2022-07-27T12:44:06.907Z,25.31
2022-07-27T12:45:06.936Z,25.24
2022-07-27T12:46:07.010Z,25.24
2022-07-27T12:47:06.993Z,25.24
2022-07-27T12:48:07.019Z,25.14
2022-07-27T12:49:07.084Z,25.11
2022-07-27T12:50:07.071Z,25.04
2022-07-27T12:51:07.105Z,25.04
2022-07-27T12:52:07.123Z,25.03
2022-07-27T12:53:07.152Z,25.22
2022-07-27T12:54:07.175Z,25.31
2022-07-27T12:55:09.499Z,25.40
2022-07-27T12:56:07.232Z,25.66
2022-07-27T12:57:07.262Z,25.78
2022-07-27T12:58:07.298Z,25.74
2022-07-27T12:59:07.316Z,25.91